NOVITA': Servizio sperimentale per la consultazione dei dati spaziali di precipitazioni in tempo reale via web-GIS. Clicca per accedere
LEGENDA
Aree di allertamento per la Regione Siciliana
Aree d'allertamento
A
B
C
D
E
F
G
H
I
Data: Data ed Ora solare di acquisizione del dato in campo, nel formato GG/MM/AAAA HH.MM
Temperatura: Temperatura ambiente in °C
Pioggia: Pioggia caduta nell'ultima ora espressa in mm
Pioggia3: Pioggia caduta nell'ultime 3 ore espressa in mm
Pioggia24: Pioggia caduta nell'ultime 24 ore espressa in mm
Pioggia48: Pioggia caduta nell'ultime 48 ore espressa in mm
Pioggia72: Pioggia caduta nell'ultime 72 ore espressa in mm
Latitudine, Longitudine: Coordinate nel formato Gradi.Primi.Secondi / Datum WGS84
NOTA: Questo elaborato viene prodotto "al volo" su richiesta dell'utente e non subisce alcuna valutazione preliminare di congruenza

AREA DI ALLERTAMENTO G

 
Stazione: AUGUSTA
ID: 109 Latitudine: 37.13.37N Logitudine: 15.12.31E Località: AUGUSTA (SR) Bacino: Bacini minori fra MULINELLO e LENTINI
Data Temperatura Pioggia Pioggia3 Pioggia24 Pioggia48 Pioggia72
13-12-2017 08:00 9.8 0.0 0.0 0.0 0.0 0.0
13-12-2017 08:30 12.0 0.0 0.0 0.0 0.0 0.0
13-12-2017 09:00 13.2 0.0 0.0 0.0 0.0 0.0
13-12-2017 09:30 15.6 0.0 0.0 0.0 0.0 0.0
13-12-2017 10:00 17.2 0.0 0.0 0.0 0.0 0.0
13-12-2017 10:30 18.9 0.0 0.0 0.0 0.0 0.0
13-12-2017 11:00 19.3 0.0 0.0 0.0 0.0 0.0
13-12-2017 11:30 20.3 0.0 0.0 0.0 0.0 0.0
13-12-2017 12:00 19.9 0.0 0.0 0.0 0.0 0.0
 
Stazione: BUCCHERI
ID: 085 Latitudine: 37.07.35N Logitudine: 14.50.45E Località: BUCCHERI (SR) Bacino: LENTINI
Data Temperatura Pioggia Pioggia3 Pioggia24 Pioggia48 Pioggia72
13-12-2017 08:00 10.0 0.0 0.0 0.0 0.0 0.0
13-12-2017 08:30 10.3 0.0 0.0 0.0 0.0 0.0
13-12-2017 09:00 10.3 0.0 0.0 0.0 0.0 0.0
13-12-2017 09:30 10.8 0.0 0.0 0.0 0.0 0.0
13-12-2017 10:00 11.4 0.0 0.0 0.0 0.0 0.0
13-12-2017 10:30 11.4 0.0 0.0 0.0 0.0 0.0
13-12-2017 11:00 12.7 0.0 0.0 0.0 0.0 0.0
13-12-2017 11:30 13.5 0.0 0.0 0.0 0.0 0.0
13-12-2017 12:00 14.1 0.0 0.0 0.0 0.0 0.0
 
Stazione: CANICATTINI BAGNI
ID: 154 Latitudine: 37.01.45N Logitudine: 15.03.23E Località: CANICATTINI BAGNI (SR) Bacino: ANAPO
Data Temperatura Pioggia Pioggia3 Pioggia24 Pioggia48 Pioggia72
13-12-2017 09:00 10.3 0.0 0.0 0.0 1.5 2.3
13-12-2017 12:00 15.2 0.0 0.0 0.0 0.5 2.3
 
Stazione: CIANE
ID: 086 Latitudine: 37.03.08N Logitudine: 15.14.11E Località: SIRACUSA (SR) Bacino: ANAPO
Data Temperatura Pioggia Pioggia3 Pioggia24 Pioggia48 Pioggia72
13-12-2017 09:05 15.6 0.0 0.0 0.0 0.0 0.0
13-12-2017 09:30 16.2 0.0 0.0 0.0 0.0 0.0
13-12-2017 10:00 17.3 0.0 0.0 0.0 0.0 0.0
13-12-2017 10:30 18.4 0.0 0.0 0.0 0.0 0.0
13-12-2017 11:00 19.3 0.0 0.0 0.0 0.0 0.0
13-12-2017 11:30 19.9 0.0 0.0 0.0 0.0 0.0
13-12-2017 12:00 20.3 0.0 0.0 0.0 0.0 0.0
 
Stazione: FRANCOFONTE
ID: 110 Latitudine: 37.13.20N Logitudine: 14.52.00E Località: FRANCOFONTE (SR) Bacino: LENTINI
Data Temperatura Pioggia Pioggia3 Pioggia24 Pioggia48 Pioggia72
13-12-2017 08:00 12.0 0.0 0.0 0.0 0.1 0.1
13-12-2017 08:30 12.1 0.0 0.0 0.0 0.0 0.1
13-12-2017 09:00 12.8 0.0 0.0 0.0 0.0 0.1
13-12-2017 09:30 13.9 0.0 0.0 0.0 0.0 0.1
13-12-2017 10:00 14.0 0.0 0.0 0.0 0.0 0.1
13-12-2017 10:30 15.7 0.0 0.0 0.0 0.0 0.1
13-12-2017 11:00 16.4 0.0 0.0 0.0 0.0 0.1
13-12-2017 11:30 16.7 0.0 0.0 0.0 0.0 0.1
13-12-2017 12:00 16.8 0.0 0.0 0.0 0.0 0.1
 
Stazione: LENTINI CITTA'
ID: 111 Latitudine: 37.17.06N Logitudine: 14.59.16E Località: LENTINI (SR) Bacino: LENTINI
Data Temperatura Pioggia Pioggia3 Pioggia24 Pioggia48 Pioggia72
13-12-2017 08:00 4.1 0.0 0.0 0.1 0.1 0.1
13-12-2017 08:30 6.3 0.0 0.0 0.1 0.1 0.1
13-12-2017 09:00 8.0 0.0 0.0 0.1 0.1 0.1
13-12-2017 09:30 9.7 0.0 0.0 0.1 0.1 0.1
13-12-2017 10:00 13.1 0.0 0.0 0.0 0.1 0.1
13-12-2017 10:30 16.3 0.0 0.0 0.0 0.1 0.1
13-12-2017 11:00 18.4 0.0 0.0 0.0 0.1 0.1
13-12-2017 11:30 18.9 0.0 0.0 0.0 0.1 0.1
 
Stazione: PALAZZOLO ACREIDE
ID: 106 Latitudine: 37.04.06N Logitudine: 14.54.35E Località: PALAZZOLO ACREIDE (SR) Bacino: ANAPO
Data Temperatura Pioggia Pioggia3 Pioggia24 Pioggia48 Pioggia72
13-12-2017 09:00 8.1 0.1 0.2 0.2 2.0 2.0
13-12-2017 12:00 13.1 0.0 0.1 0.2 0.4 2.0
 
Stazione: SIRACUSA
ID: 108 Latitudine: 37.04.27N Logitudine: 15.16.50E Località: SIRACUSA (SR) Bacino: Bacini minori fra ANAPO e CANTERA
Data Temperatura Pioggia Pioggia3 Pioggia24 Pioggia48 Pioggia72
13-12-2017 08:00 12.0 0.0 0.0 0.2 0.7 0.8
13-12-2017 08:30 15.8 0.0 0.0 0.2 0.3 0.8
13-12-2017 09:00 16.4 0.0 0.0 0.2 0.3 0.8
13-12-2017 09:30 17.6 0.0 0.0 0.2 0.3 0.8
13-12-2017 10:00 19.7 0.0 0.0 0.2 0.3 0.8
13-12-2017 10:30 20.5 0.0 0.0 0.2 0.3 0.8
13-12-2017 11:00 21.2 0.0 0.0 0.2 0.3 0.8
13-12-2017 11:30 21.7 0.0 0.0 0.2 0.3 0.8
13-12-2017 12:00 22.5 0.0 0.0 0.2 0.3 0.8